Time;durP1;ratioP1;P1;durP2;ratioP2;P2;SDS_P1;SDS_P2;PMS_P1;PMS_P2;Temp;Humidity;BMP_temperature;BMP_pressure;BME280_temperature;BME280_humidity;BME280_pressure;Samples;Min_cycle;Max_cycle;Signal;HPM_P1;HPM_P2
2021/06/10 00:01:18;;;;;;;4.03;3.50;;;;;;;-140.79;100.00;63287.88;4933324;29;20031;-74
2021/06/10 00:03:43;;;;;;;5.75;4.60;;;;;;;-140.79;100.00;63287.88;4931508;29;20044;-74
2021/06/10 00:06:08;;;;;;;6.13;4.05;;;;;;;-140.79;100.00;63287.88;4932421;29;20032;-74
2021/06/10 00:08:34;;;;;;;6.13;3.92;;;;;;;-140.79;100.00;63287.88;4932454;29;20040;-74
2021/06/10 00:11:00;;;;;;;4.93;3.67;;;;;;;-140.79;100.00;63287.88;4932360;29;20040;-73
2021/06/10 00:13:25;;;;;;;5.00;4.25;;;;;;;-140.79;100.00;63287.88;4910593;29;20038;-74
2021/06/10 00:15:51;;;;;;;7.70;4.43;;;;;;;-140.79;100.00;63287.88;4951468;29;20483;-74
2021/06/10 00:18:16;;;;;;;6.43;4.20;;;;;;;-140.79;100.00;63287.88;4934281;29;20034;-73
2021/06/10 00:20:42;;;;;;;7.15;4.40;;;;;;;-140.79;100.00;63287.88;4934172;29;20027;-73
2021/06/10 00:23:07;;;;;;;4.45;3.88;;;;;;;-140.79;100.00;63287.88;4951397;29;20034;-76
2021/06/10 00:25:33;;;;;;;5.10;3.58;;;;;;;-140.79;100.00;63287.88;4951226;29;20038;-73
2021/06/10 00:27:59;;;;;;;6.90;3.45;;;;;;;-140.79;100.00;63287.88;4951203;29;20427;-73
2021/06/10 00:30:25;;;;;;;5.72;3.78;;;;;;;-140.79;100.00;63287.88;4951359;29;20027;-75
2021/06/10 00:32:50;;;;;;;4.47;3.58;;;;;;;-140.79;100.00;63287.88;4950985;29;20086;-74
2021/06/10 00:35:17;;;;;;;4.10;3.35;;;;;;;-140.79;100.00;63287.88;4951128;29;20054;-74
2021/06/10 00:37:42;;;;;;;4.40;3.40;;;;;;;-140.79;100.00;63287.88;4951111;29;20110;-74
2021/06/10 00:40:08;;;;;;;4.05;3.40;;;;;;;-140.79;100.00;63287.88;4950805;29;20483;-74
2021/06/10 00:42:34;;;;;;;5.28;3.53;;;;;;;-140.79;100.00;63287.88;4950900;29;20556;-74
2021/06/10 00:45:00;;;;;;;5.05;3.40;;;;;;;-140.79;100.00;63287.88;4950785;29;20046;-74
2021/06/10 00:47:25;;;;;;;4.20;3.17;;;;;;;-140.79;100.00;63287.88;4933605;29;20557;-74
2021/06/10 00:49:51;;;;;;;5.13;3.45;;;;;;;-140.79;100.00;63287.88;4934282;29;20043;-74
2021/06/10 00:52:16;;;;;;;4.78;3.70;;;;;;;-140.79;100.00;63287.88;4934058;29;20499;-74
2021/06/10 00:54:41;;;;;;;4.70;3.38;;;;;;;-140.79;100.00;63287.88;4933442;29;20488;-74
2021/06/10 00:57:07;;;;;;;5.10;3.60;;;;;;;-140.79;100.00;63287.88;4950507;29;20518;-74
2021/06/10 00:59:33;;;;;;;5.15;3.63;;;;;;;-140.79;100.00;63287.88;4950541;29;20035;-74
2021/06/10 01:01:59;;;;;;;5.40;3.53;;;;;;;-140.79;100.00;63287.88;4950996;29;20043;-73
2021/06/10 01:04:25;;;;;;;5.95;3.25;;;;;;;-140.79;100.00;63287.88;4950489;29;20043;-74
2021/06/10 01:06:52;;;;;;;4.25;3.28;;;;;;;-140.79;100.00;63287.88;4933393;29;20038;-74
2021/06/10 01:09:21;;;;;;;4.88;3.38;;;;;;;-140.79;100.00;63287.88;4950334;29;20525;-74
2021/06/10 01:12:04;;;;;;;6.47;3.47;;;;;;;-140.79;100.00;63287.88;4933482;29;20031;-74
2021/06/10 01:14:47;;;;;;;4.50;2.88;;;;;;;-140.79;100.00;63287.88;4950373;28;20031;-74
2021/06/10 01:17:13;;;;;;;4.32;3.05;;;;;;;-140.79;100.00;63287.88;4950395;29;20062;-74
2021/06/10 01:19:41;;;;;;;6.40;3.20;;;;;;;-140.79;100.00;63287.88;4932867;29;20502;-74
2021/06/10 01:22:12;;;;;;;3.40;2.95;;;;;;;-140.79;100.00;63287.88;4950375;29;20513;-74
2021/06/10 01:24:49;;;;;;;4.68;3.13;;;;;;;-140.79;100.00;63287.88;4950362;29;20122;-74
2021/06/10 01:27:32;;;;;;;5.45;3.30;;;;;;;-140.79;100.00;63287.88;4950177;29;20039;-74
2021/06/10 01:30:04;;;;;;;3.95;3.20;;;;;;;-140.79;100.00;63287.88;4950034;29;20487;-74
2021/06/10 01:32:30;;;;;;;5.50;3.20;;;;;;;-140.79;100.00;63287.88;4949770;29;20042;-74
2021/06/10 01:34:55;;;;;;;4.75;3.40;;;;;;;-140.79;100.00;63287.88;4932919;29;20023;-75
2021/06/10 01:37:21;;;;;;;4.38;3.42;;;;;;;-140.79;100.00;63287.88;4932909;29;20023;-74
2021/06/10 01:39:46;;;;;;;5.15;3.50;;;;;;;-140.79;100.00;63287.88;4950562;29;20027;-74
2021/06/10 01:42:12;;;;;;;5.15;3.35;;;;;;;-140.79;100.00;63287.88;4917091;29;20023;-75
2021/06/10 01:44:39;;;;;;;9.40;4.90;;;;;;;-140.79;100.00;63287.88;4916842;29;20114;-74
2021/06/10 01:47:05;;;;;;;6.13;4.32;;;;;;;-140.79;100.00;63287.88;4916848;29;20043;-74
2021/06/10 01:49:30;;;;;;;5.97;3.50;;;;;;;-140.79;100.00;63287.88;4950097;29;20031;-74
2021/06/10 01:51:56;;;;;;;8.43;3.60;;;;;;;-140.79;100.00;63287.88;4917254;29;20039;-74
2021/06/10 01:54:21;;;;;;;5.22;3.92;;;;;;;-140.79;100.00;63287.88;4916543;29;20038;-74
2021/06/10 01:56:46;;;;;;;5.78;3.60;;;;;;;-140.79;100.00;63287.88;4932888;29;20050;-74
2021/06/10 01:59:12;;;;;;;4.57;3.78;;;;;;;-140.79;100.00;63287.88;4915568;29;20043;-74
2021/06/10 02:01:37;;;;;;;6.55;4.93;;;;;;;-140.79;100.00;63287.88;4949678;29;20042;-74
2021/06/10 02:04:03;;;;;;;7.47;4.93;;;;;;;-140.79;100.00;63287.88;4932133;29;20051;-74
2021/06/10 02:06:28;;;;;;;6.38;4.68;;;;;;;-140.79;100.00;63287.88;4916547;29;20038;-74
2021/06/10 02:08:54;;;;;;;5.00;4.15;;;;;;;-140.79;100.00;63287.88;4932497;29;20039;-74
2021/06/10 02:11:19;;;;;;;7.13;3.90;;;;;;;-140.79;100.00;63287.88;4916469;29;20034;-74
2021/06/10 02:13:45;;;;;;;6.47;4.10;;;;;;;-140.79;100.00;63287.88;4933030;29;20031;-73
2021/06/10 02:16:11;;;;;;;6.95;4.30;;;;;;;-140.79;100.00;63287.88;4951958;29;20093;-73
2021/06/10 02:18:38;;;;;;;7.43;4.70;;;;;;;-140.79;100.00;63287.88;4952970;29;20559;-73
2021/06/10 02:21:05;;;;;;;5.85;4.28;;;;;;;-140.79;100.00;63287.88;4935450;29;20054;-73
2021/06/10 02:23:31;;;;;;;5.00;4.35;;;;;;;-140.79;100.00;63287.88;4934819;29;20034;-73
2021/06/10 02:25:56;;;;;;;5.50;4.10;;;;;;;-140.79;100.00;63287.88;4951956;28;20035;-75
2021/06/10 02:28:22;;;;;;;4.63;3.90;;;;;;;-140.79;100.00;63287.88;4954873;29;20216;-72
2021/06/10 02:30:47;;;;;;;4.88;4.00;;;;;;;-140.79;100.00;63287.88;4955957;29;20038;-74
2021/06/10 02:33:15;;;;;;;6.03;3.90;;;;;;;-140.79;100.00;63287.88;4956091;28;20503;-74
2021/06/10 02:35:40;;;;;;;5.50;3.80;;;;;;;-140.79;100.00;63287.88;4955915;29;20046;-74
2021/06/10 02:38:06;;;;;;;6.13;4.13;;;;;;;-140.79;100.00;63287.88;4955918;29;20031;-74
2021/06/10 02:40:37;;;;;;;4.65;3.92;;;;;;;-140.79;100.00;63287.88;4955926;29;20081;-74
2021/06/10 02:43:04;;;;;;;6.68;4.00;;;;;;;-140.79;100.00;63287.88;4922668;28;20037;-74
2021/06/10 02:45:29;;;;;;;5.07;4.03;;;;;;;-140.79;100.00;63287.88;4955255;29;20027;-74
2021/06/10 02:47:56;;;;;;;5.13;4.13;;;;;;;-140.79;100.00;63287.88;4922386;29;20062;-74
2021/06/10 02:50:21;;;;;;;5.95;3.53;;;;;;;-140.79;100.00;63287.88;4922488;29;20090;-74
2021/06/10 02:52:49;;;;;;;4.80;3.75;;;;;;;-140.79;100.00;63287.88;4938578;29;20042;-74
2021/06/10 02:55:15;;;;;;;6.07;3.83;;;;;;;-140.79;100.00;63287.88;4955758;28;20409;-74
2021/06/10 02:57:54;;;;;;;5.20;3.60;;;;;;;-140.79;100.00;63287.88;4922468;29;20487;-74
2021/06/10 03:00:21;;;;;;;4.10;3.40;;;;;;;-140.79;100.00;63287.88;4937761;29;20058;-74
2021/06/10 03:02:50;;;;;;;5.00;3.75;;;;;;;-140.79;100.00;63287.88;4955022;29;20063;-74
2021/06/10 03:05:16;;;;;;;5.32;3.85;;;;;;;-140.79;100.00;63287.88;4938312;29;20118;-75
2021/06/10 03:07:41;;;;;;;4.60;3.42;;;;;;;-140.79;100.00;63287.88;4922242;29;20134;-74
2021/06/10 03:10:08;;;;;;;6.28;3.60;;;;;;;-140.79;100.00;63287.88;4938349;29;20038;-74
2021/06/10 03:12:34;;;;;;;4.43;3.47;;;;;;;-140.79;100.00;63287.88;4937946;29;20027;-74
2021/06/10 03:15:00;;;;;;;5.80;4.13;;;;;;;-140.79;100.00;63287.88;4938030;29;20023;-74
2021/06/10 03:17:25;;;;;;;4.60;3.53;;;;;;;-140.79;100.00;63287.88;4937967;29;20034;-74
2021/06/10 03:19:51;;;;;;;4.65;3.70;;;;;;;-140.79;100.00;63287.88;4938086;28;20039;-74
2021/06/10 03:22:16;;;;;;;6.60;3.88;;;;;;;-140.79;100.00;63287.88;4955316;29;20047;-74
2021/06/10 03:24:42;;;;;;;5.50;3.80;;;;;;;-140.79;100.00;63287.88;4922297;29;20030;-74
2021/06/10 03:27:08;;;;;;;5.07;3.90;;;;;;;-140.79;100.00;63287.88;4922166;28;20031;-74
2021/06/10 03:29:34;;;;;;;5.50;3.80;;;;;;;-140.79;100.00;63287.88;4955266;29;20070;-74
2021/06/10 03:31:59;;;;;;;5.70;4.28;;;;;;;-140.79;100.00;63287.88;4938070;29;20035;-74
2021/06/10 03:34:27;;;;;;;4.50;3.70;;;;;;;-140.79;100.00;63287.88;4921939;29;20050;-74
2021/06/10 03:36:52;;;;;;;6.18;3.78;;;;;;;-140.79;100.00;63287.88;4938208;29;20039;-74
2021/06/10 03:39:18;;;;;;;6.35;3.72;;;;;;;-140.79;100.00;63287.88;4919534;29;20027;-74
2021/06/10 03:41:43;;;;;;;6.40;3.70;;;;;;;-140.79;100.00;63287.88;4952112;29;20070;-74
2021/06/10 03:44:09;;;;;;;4.30;3.58;;;;;;;-140.79;100.00;63287.88;4931836;29;20086;-74
2021/06/10 03:46:35;;;;;;;6.65;3.58;;;;;;;-140.79;100.00;63287.88;4934893;29;20038;-79
2021/06/10 03:49:01;;;;;;;4.60;3.35;;;;;;;-140.79;100.00;63287.88;4934353;29;20030;-74
2021/06/10 03:51:26;;;;;;;4.45;3.15;;;;;;;-140.79;100.00;63287.88;4950237;29;20090;-78
2021/06/10 03:53:52;;;;;;;4.70;3.70;;;;;;;-140.79;100.00;63287.88;4917409;29;20035;-77
2021/06/10 03:56:17;;;;;;;6.85;3.65;;;;;;;-140.79;100.00;63287.88;4918106;29;20055;-77
2021/06/10 03:58:43;;;;;;;4.63;3.38;;;;;;;-140.79;100.00;63287.88;4916137;29;20514;-80
2021/06/10 04:01:08;;;;;;;4.95;3.25;;;;;;;-140.79;100.00;63287.88;4935036;29;20042;-82
2021/06/10 04:03:34;;;;;;;4.93;3.60;;;;;;;-140.79;100.00;63287.88;4932189;29;20106;-80
2021/06/10 04:06:00;;;;;;;5.05;3.80;;;;;;;-140.79;100.00;63287.88;4950206;29;20034;-80
2021/06/10 04:08:26;;;;;;;6.43;4.03;;;;;;;-140.79;100.00;63287.88;4935496;29;20041;-81
2021/06/10 04:10:51;;;;;;;5.80;3.95;;;;;;;-140.79;100.00;63287.88;4933573;29;20019;-77
2021/06/10 04:13:17;;;;;;;6.60;3.55;;;;;;;-140.79;100.00;63287.88;4948297;29;20031;-79
2021/06/10 04:15:42;;;;;;;8.57;3.85;;;;;;;-140.79;100.00;63287.88;4947539;29;20032;-75
2021/06/10 04:18:08;;;;;;;6.47;4.47;;;;;;;-140.79;100.00;63287.88;4949776;29;20064;-75
2021/06/10 04:20:33;;;;;;;5.60;4.55;;;;;;;-140.79;100.00;63287.88;4949953;29;20035;-74
2021/06/10 04:22:59;;;;;;;7.28;4.22;;;;;;;-140.79;100.00;63287.88;4932390;29;20027;-76
2021/06/10 04:25:24;;;;;;;5.70;4.13;;;;;;;-140.79;100.00;63287.88;4949597;29;20035;-75
2021/06/10 04:27:49;;;;;;;5.40;3.90;;;;;;;-140.79;100.00;63287.88;4948562;29;20049;-77
2021/06/10 04:30:16;;;;;;;6.63;4.00;;;;;;;-140.79;100.00;63287.88;4950203;29;20035;-76
2021/06/10 04:32:44;;;;;;;7.65;4.25;;;;;;;-140.79;100.00;63287.88;4946338;29;20047;-72
2021/06/10 04:35:10;;;;;;;6.80;4.32;;;;;;;-140.79;100.00;63287.88;4949761;29;20058;-76
2021/06/10 04:37:35;;;;;;;8.18;4.53;;;;;;;-140.79;100.00;63287.88;4947679;29;20059;-75
2021/06/10 04:40:01;;;;;;;7.18;4.50;;;;;;;-140.79;100.00;63287.88;4947872;29;20035;-72
2021/06/10 04:42:26;;;;;;;6.80;4.60;;;;;;;-140.79;100.00;63287.88;4949458;29;20042;-74
2021/06/10 04:44:52;;;;;;;6.82;5.03;;;;;;;-140.79;100.00;63287.88;4949671;29;20038;-86
2021/06/10 04:47:17;;;;;;;7.32;4.40;;;;;;;-140.79;100.00;63287.88;4948256;29;20027;-80
2021/06/10 04:49:44;;;;;;;6.55;4.88;;;;;;;-140.79;100.00;63287.88;4950014;28;20035;-74
2021/06/10 04:52:10;;;;;;;10.05;4.95;;;;;;;-140.79;100.00;63287.88;4933388;29;20030;-74
2021/06/10 04:54:35;;;;;;;8.95;4.97;;;;;;;-140.79;100.00;63287.88;4945847;29;20114;-74
2021/06/10 04:57:01;;;;;;;9.82;4.60;;;;;;;-140.79;100.00;63287.88;4948956;29;20031;-74
2021/06/10 04:59:27;;;;;;;10.18;5.53;;;;;;;-140.79;100.00;63287.88;4949443;29;20765;-73
2021/06/10 05:01:52;;;;;;;7.68;5.43;;;;;;;-140.79;100.00;63287.88;4950280;29;20035;-74
2021/06/10 05:04:18;;;;;;;9.18;5.20;;;;;;;-140.79;100.00;63287.88;4947742;29;20047;-74
2021/06/10 05:06:43;;;;;;;8.43;5.70;;;;;;;-140.79;100.00;63287.88;4949102;29;20415;-76
2021/06/10 05:09:09;;;;;;;8.70;5.68;;;;;;;-140.79;100.00;63287.88;4949521;29;20031;-75
2021/06/10 05:11:34;;;;;;;14.30;5.57;;;;;;;-140.79;100.00;63287.88;4946934;29;20385;-76
2021/06/10 05:13:59;;;;;;;10.93;5.70;;;;;;;-140.79;100.00;63287.88;4949123;29;20768;-76
2021/06/10 05:16:28;;;;;;;8.52;5.25;;;;;;;-140.79;100.00;63287.88;4951300;29;20103;-77
2021/06/10 05:18:54;;;;;;;10.88;5.88;;;;;;;-140.79;100.00;63287.88;4931620;29;20505;-75
2021/06/10 05:21:19;;;;;;;7.82;4.40;;;;;;;-140.79;100.00;63287.88;4947376;29;20030;-73
2021/06/10 05:23:45;;;;;;;7.70;4.88;;;;;;;-140.79;100.00;63287.88;4947860;29;20043;-75
2021/06/10 05:26:10;;;;;;;7.03;4.45;;;;;;;-140.79;100.00;63287.88;4939301;29;20023;-74
2021/06/10 05:28:36;;;;;;;11.50;5.00;;;;;;;-140.79;100.00;63287.88;4942868;29;20027;-74
2021/06/10 05:31:02;;;;;;;11.63;4.65;;;;;;;-140.79;100.00;63287.88;4947772;29;20057;-75
2021/06/10 05:33:28;;;;;;;9.55;4.95;;;;;;;-140.79;100.00;63287.88;4949201;29;20038;-81
2021/06/10 05:35:53;;;;;;;10.70;5.03;;;;;;;-140.79;100.00;63287.88;4949398;29;20534;-78
2021/06/10 05:38:19;;;;;;;8.32;4.50;;;;;;;-140.79;100.00;63287.88;4933441;29;20027;-84
2021/06/10 05:40:44;;;;;;;8.90;4.68;;;;;;;-140.79;100.00;63287.88;4947822;29;20034;-81
2021/06/10 05:43:09;;;;;;;9.27;5.07;;;;;;;-140.79;100.00;63287.88;4950410;29;20406;-78
2021/06/10 05:45:35;;;;;;;6.95;5.15;;;;;;;-140.79;100.00;63287.88;4949868;29;20507;-81
2021/06/10 05:48:00;;;;;;;7.85;4.90;;;;;;;-140.79;100.00;63287.88;4953205;29;20019;-78
2021/06/10 05:50:26;;;;;;;13.18;5.80;;;;;;;-140.79;100.00;63287.88;4951164;29;20423;-79
2021/06/10 05:52:51;;;;;;;8.27;5.07;;;;;;;-140.79;100.00;63287.88;4949021;29;20046;-74
2021/06/10 05:55:17;;;;;;;9.20;4.80;;;;;;;-140.79;100.00;63287.88;4948610;29;20482;-73
2021/06/10 05:57:42;;;;;;;16.65;5.28;;;;;;;-140.79;100.00;63287.88;4942320;29;20039;-78
2021/06/10 06:00:08;;;;;;;8.93;5.35;;;;;;;-140.79;100.00;63287.88;4931969;29;20072;-74
2021/06/10 06:02:34;;;;;;;10.88;5.22;;;;;;;-140.79;100.00;63287.88;4946883;28;20031;-73
2021/06/10 06:04:59;;;;;;;8.38;4.85;;;;;;;-140.79;100.00;63287.88;4948522;29;20098;-73
2021/06/10 06:07:25;;;;;;;8.05;4.68;;;;;;;-140.79;100.00;63287.88;4947769;29;20062;-74
2021/06/10 06:09:51;;;;;;;6.43;4.90;;;;;;;-140.79;100.00;63287.88;4948508;29;20031;-77
2021/06/10 06:12:16;;;;;;;8.63;4.90;;;;;;;-140.79;100.00;63287.88;4929572;29;20113;-75
2021/06/10 06:14:44;;;;;;;9.30;4.80;;;;;;;-140.79;100.00;63287.88;4941306;29;20031;-74
2021/06/10 06:17:13;;;;;;;11.85;5.10;;;;;;;-140.79;100.00;63287.88;4948352;29;20047;-75
2021/06/10 06:19:39;;;;;;;8.73;4.13;;;;;;;-140.79;100.00;63287.88;4944896;29;20027;-73
2021/06/10 06:22:05;;;;;;;5.78;3.83;;;;;;;-140.79;100.00;63287.88;4947769;29;20694;-73
2021/06/10 06:24:31;;;;;;;7.63;4.60;;;;;;;-140.79;100.00;63287.88;4930626;29;20031;-73
2021/06/10 06:26:58;;;;;;;10.65;4.40;;;;;;;-140.79;100.00;63287.88;4946820;29;20034;-74
2021/06/10 06:29:23;;;;;;;6.38;4.07;;;;;;;-140.79;100.00;63287.88;4946328;29;20499;-71
2021/06/10 06:31:49;;;;;;;6.68;4.00;;;;;;;-140.79;100.00;63287.88;4929554;29;20038;-74
2021/06/10 06:34:14;;;;;;;7.05;4.20;;;;;;;-140.79;100.00;63287.88;4931036;29;20020;-74
2021/06/10 06:36:40;;;;;;;6.63;4.22;;;;;;;-140.79;100.00;63287.88;4952025;29;20035;-74
2021/06/10 06:39:05;;;;;;;10.32;4.13;;;;;;;-140.79;100.00;63287.88;4947148;29;20490;-73
2021/06/10 06:41:31;;;;;;;7.55;4.20;;;;;;;-140.79;100.00;63287.88;4948127;29;20043;-74
2021/06/10 06:43:56;;;;;;;8.40;3.70;;;;;;;-140.79;100.00;63287.88;4947098;29;20046;-74
2021/06/10 06:46:22;;;;;;;10.20;4.28;;;;;;;-140.79;100.00;63287.88;4948509;29;20027;-74
2021/06/10 06:48:47;;;;;;;7.85;3.97;;;;;;;-140.79;100.00;63287.88;4945369;29;20027;-75
2021/06/10 06:51:13;;;;;;;6.03;4.32;;;;;;;-140.79;100.00;63287.88;4948273;29;20020;-75
2021/06/10 06:53:38;;;;;;;6.35;3.80;;;;;;;-140.79;100.00;63287.88;4930858;29;20041;-74
2021/06/10 06:56:04;;;;;;;9.43;3.95;;;;;;;-140.79;100.00;63287.88;4930803;29;20503;-74
2021/06/10 06:58:30;;;;;;;7.25;3.80;;;;;;;-140.79;100.00;63287.88;4946190;29;20062;-74
2021/06/10 07:00:56;;;;;;;9.40;3.80;;;;;;;-140.79;100.00;63287.88;4939491;29;20019;-73
2021/06/10 07:03:21;;;;;;;6.95;4.07;;;;;;;-140.79;100.00;63287.88;4937967;29;20052;-74
2021/06/10 07:05:47;;;;;;;7.47;3.88;;;;;;;-140.79;100.00;63287.88;4942315;29;20035;-74
2021/06/10 07:08:13;;;;;;;7.13;3.60;;;;;;;-140.79;100.00;63287.88;4944977;29;20023;-74
2021/06/10 07:10:39;;;;;;;7.35;3.92;;;;;;;-140.79;100.00;63287.88;4915301;29;20110;-75
2021/06/10 07:13:04;;;;;;;7.80;3.88;;;;;;;-140.79;100.00;63287.88;4937900;29;20031;-75
2021/06/10 07:15:30;;;;;;;7.43;3.83;;;;;;;-140.79;100.00;63287.88;4949106;29;20384;-74
2021/06/10 07:17:55;;;;;;;10.40;3.92;;;;;;;-140.79;100.00;63287.88;4949349;29;20039;-75
2021/06/10 07:20:22;;;;;;;9.38;3.50;;;;;;;-140.79;100.00;63287.88;4931617;29;20085;-74
2021/06/10 07:22:48;;;;;;;6.00;3.30;;;;;;;-140.79;100.00;63287.88;4951661;29;20036;-74
2021/06/10 07:25:13;;;;;;;8.98;3.67;;;;;;;-140.79;100.00;63287.88;4934631;29;20042;-75
2021/06/10 07:27:40;;;;;;;8.75;3.92;;;;;;;-140.79;100.00;63287.88;4945192;29;20031;-75
2021/06/10 07:30:06;;;;;;;6.15;4.03;;;;;;;-140.79;100.00;63287.88;4918598;29;20031;-72
2021/06/10 07:32:32;;;;;;;7.40;3.67;;;;;;;-140.79;100.00;63287.88;4934954;29;20042;-71
2021/06/10 07:34:57;;;;;;;7.22;3.85;;;;;;;-140.79;100.00;63287.88;4951010;29;20023;-73
2021/06/10 07:37:23;;;;;;;6.03;3.97;;;;;;;-140.79;100.00;63287.88;4951982;29;20028;-73
2021/06/10 07:39:48;;;;;;;9.07;4.50;;;;;;;-140.79;100.00;63287.88;4918926;29;20494;-72
2021/06/10 07:42:14;;;;;;;5.35;4.10;;;;;;;-140.79;100.00;63287.88;4950628;29;20027;-72
2021/06/10 07:44:39;;;;;;;6.45;4.00;;;;;;;-140.79;100.00;63287.88;4948108;29;20027;-74
2021/06/10 07:47:05;;;;;;;8.65;4.07;;;;;;;-140.79;100.00;63287.88;4950623;29;20492;-73
2021/06/10 07:49:32;;;;;;;6.03;3.72;;;;;;;-140.79;100.00;63287.88;4934959;29;20035;-73
2021/06/10 07:51:58;;;;;;;4.97;3.80;;;;;;;-140.79;100.00;63287.88;4951968;29;20533;-74
2021/06/10 07:54:24;;;;;;;7.07;3.65;;;;;;;-140.79;100.00;63287.88;4935147;29;20015;-72
2021/06/10 07:56:49;;;;;;;6.50;3.40;;;;;;;-140.79;100.00;63287.88;4934397;29;20085;-72
2021/06/10 07:59:18;;;;;;;8.38;3.47;;;;;;;-140.79;100.00;63287.88;4951692;29;20027;-73
2021/06/10 08:01:43;;;;;;;5.75;3.88;;;;;;;-140.79;100.00;63287.88;4950419;29;20027;-73
2021/06/10 08:04:09;;;;;;;10.48;3.83;;;;;;;-140.79;100.00;63287.88;4934173;29;20114;-73
2021/06/10 08:06:34;;;;;;;5.50;3.67;;;;;;;-140.79;100.00;63287.88;4934378;29;20023;-73
2021/06/10 08:09:01;;;;;;;4.18;2.88;;;;;;;-140.79;100.00;63287.88;4951539;29;20027;-73
2021/06/10 08:11:26;;;;;;;3.92;2.80;;;;;;;-140.79;100.00;63287.88;4951710;29;20118;-73
2021/06/10 08:13:52;;;;;;;4.25;2.78;;;;;;;-140.79;100.00;63287.88;4951391;29;20026;-74
2021/06/10 08:16:17;;;;;;;5.20;2.70;;;;;;;-140.79;100.00;63287.88;4934529;29;20248;-76
2021/06/10 08:18:43;;;;;;;3.88;2.75;;;;;;;-140.79;100.00;63287.88;4950820;29;20063;-76
2021/06/10 08:21:09;;;;;;;2.92;2.30;;;;;;;-140.79;100.00;63287.88;4951362;29;20604;-75
2021/06/10 08:23:34;;;;;;;2.72;2.40;;;;;;;-140.79;100.00;63287.88;4943578;29;20035;-76
2021/06/10 08:26:01;;;;;;;4.47;2.38;;;;;;;-140.79;100.00;63287.88;4930939;29;20027;-76
2021/06/10 08:28:28;;;;;;;3.95;2.20;;;;;;;-140.79;100.00;63287.88;4945821;29;20031;-76
2021/06/10 08:30:54;;;;;;;3.80;2.17;;;;;;;-140.79;100.00;63287.88;4951246;29;20023;-77
2021/06/10 08:33:20;;;;;;;2.78;2.22;;;;;;;-140.79;100.00;63287.88;4904639;29;20023;-76
2021/06/10 08:35:45;;;;;;;2.88;2.30;;;;;;;-140.79;100.00;63287.88;4923654;29;20086;-76
2021/06/10 08:38:11;;;;;;;2.30;2.10;;;;;;;-140.79;100.00;63287.88;4951067;29;20027;-76
2021/06/10 08:40:37;;;;;;;5.57;2.20;;;;;;;-140.79;100.00;63287.88;4951150;29;20027;-75
2021/06/10 08:43:06;;;;;;;5.43;2.13;;;;;;;-140.79;100.00;63287.88;4933774;29;20034;-76
2021/06/10 08:45:32;;;;;;;3.17;2.65;;;;;;;-140.79;100.00;63287.88;4951019;29;20038;-76
2021/06/10 08:47:58;;;;;;;4.05;2.70;;;;;;;-140.79;100.00;63287.88;4917580;29;20070;-75
2021/06/10 08:50:24;;;;;;;3.65;2.25;;;;;;;-140.79;100.00;63287.88;4917769;29;20046;-76
2021/06/10 08:52:51;;;;;;;3.78;2.63;;;;;;;-140.79;100.00;63287.88;4933760;29;20043;-76
2021/06/10 08:55:16;;;;;;;4.82;3.00;;;;;;;-140.79;100.00;63287.88;4950661;29;20031;-77
2021/06/10 08:57:42;;;;;;;4.30;3.22;;;;;;;-140.79;100.00;63287.88;4933449;29;20027;-76
2021/06/10 09:00:08;;;;;;;4.43;3.30;;;;;;;-140.79;100.00;63287.88;4931080;29;20102;-76
2021/06/10 09:02:35;;;;;;;4.70;3.70;;;;;;;-140.79;100.00;63287.88;4950321;29;20088;-76
2021/06/10 09:05:02;;;;;;;6.32;3.30;;;;;;;-140.79;100.00;63287.88;4950641;29;20043;-76
2021/06/10 09:07:38;;;;;;;5.85;4.07;;;;;;;-140.79;100.00;63287.88;4950600;29;20422;-76
2021/06/10 09:10:05;;;;;;;6.13;4.00;;;;;;;-140.79;100.00;63287.88;4917488;29;20122;-76
2021/06/10 09:12:57;;;;;;;7.50;3.92;;;;;;;-140.79;100.00;63287.88;4950739;29;20031;-76
2021/06/10 09:15:25;;;;;;;5.90;3.65;;;;;;;-140.79;100.00;63287.88;4946879;29;20063;-76
2021/06/10 09:17:51;;;;;;;5.88;3.70;;;;;;;-140.79;100.00;63287.88;4931543;29;20045;-76
2021/06/10 09:20:19;;;;;;;4.07;3.47;;;;;;;-140.79;100.00;63287.88;4913945;29;20035;-72
2021/06/10 09:22:49;;;;;;;4.45;3.22;;;;;;;-140.79;100.00;63287.88;4943482;29;20028;-73
2021/06/10 09:25:17;;;;;;;5.10;2.95;;;;;;;-140.79;100.00;63287.88;4932257;29;20040;-73
2021/06/10 09:27:59;;;;;;;7.30;3.42;;;;;;;-140.79;100.00;63287.88;4930661;29;20080;-73
2021/06/10 09:30:36;;;;;;;4.68;3.15;;;;;;;-140.79;100.00;63287.88;4926530;29;20027;-73
2021/06/10 09:33:05;;;;;;;4.45;3.00;;;;;;;-140.79;100.00;63287.88;4935547;29;20126;-73
2021/06/10 09:35:34;;;;;;;4.60;3.00;;;;;;;-140.79;100.00;63287.88;4946430;28;20470;-73
2021/06/10 09:38:01;;;;;;;5.07;3.00;;;;;;;-140.79;100.00;63287.88;4944799;29;20065;-73
2021/06/10 09:40:28;;;;;;;3.90;2.80;;;;;;;-140.79;100.00;63287.88;4945878;29;20431;-72
2021/06/10 09:42:54;;;;;;;4.05;2.70;;;;;;;-140.79;100.00;63287.88;4921376;29;20050;-73
2021/06/10 09:45:21;;;;;;;4.20;2.70;;;;;;;-140.79;100.00;63287.88;4929216;29;20027;-73
2021/06/10 09:47:52;;;;;;;3.38;2.70;;;;;;;-140.79;100.00;63287.88;4939309;29;20411;-74
2021/06/10 09:50:20;;;;;;;4.70;2.92;;;;;;;-140.79;100.00;63287.88;4948324;29;20056;-72
2021/06/10 09:52:46;;;;;;;3.13;2.53;;;;;;;-140.79;100.00;63287.88;4949747;29;20503;-71
2021/06/10 09:55:27;;;;;;;4.45;2.60;;;;;;;-140.79;100.00;63287.88;4946654;29;20027;-73
2021/06/10 09:57:55;;;;;;;3.55;1.88;;;;;;;-140.79;100.00;63287.88;4928451;29;20038;-74
2021/06/10 10:00:26;;;;;;;4.28;2.30;;;;;;;-140.79;100.00;63287.88;4927753;29;20038;-72
2021/06/10 10:02:58;;;;;;;2.50;1.80;;;;;;;-140.79;100.00;63287.88;4927482;29;20474;-72
2021/06/10 10:05:25;;;;;;;3.70;2.05;;;;;;;-140.79;100.00;63287.88;4945138;29;20542;-71
2021/06/10 10:07:52;;;;;;;2.78;1.98;;;;;;;-140.79;100.00;63287.88;4945936;29;20023;-71
2021/06/10 10:10:18;;;;;;;3.15;2.00;;;;;;;-140.79;100.00;63287.88;4930284;29;20035;-71
2021/06/10 10:12:45;;;;;;;5.15;2.45;;;;;;;-140.79;100.00;63287.88;4929130;29;20512;-71
2021/06/10 10:15:11;;;;;;;3.17;2.00;;;;;;;-140.79;100.00;63287.88;4947429;29;20030;-72
2021/06/10 10:17:37;;;;;;;2.70;2.00;;;;;;;-140.79;100.00;63287.88;4945446;29;20114;-70
2021/06/10 10:20:04;;;;;;;6.22;3.15;;;;;;;-140.79;100.00;63287.88;4922413;29;20119;-71
2021/06/10 10:22:37;;;;;;;3.90;2.10;;;;;;;-140.79;100.00;63287.88;4946010;29;20027;-71
2021/06/10 10:25:04;;;;;;;4.03;2.15;;;;;;;-140.79;100.00;63287.88;4923847;29;20575;-71
2021/06/10 10:27:33;;;;;;;3.83;2.22;;;;;;;-140.79;100.00;63287.88;4941482;29;20027;-71
2021/06/10 10:29:58;;;;;;;3.20;2.10;;;;;;;-140.79;100.00;63287.88;4914841;29;20118;-71
2021/06/10 10:32:28;;;;;;;2.92;2.17;;;;;;;-140.79;100.00;63287.88;4920240;29;20027;-71
2021/06/10 10:34:54;;;;;;;3.15;1.98;;;;;;;-140.79;100.00;63287.88;4910998;29;20030;-72
2021/06/10 10:37:25;;;;;;;2.28;1.83;;;;;;;-140.79;100.00;63287.88;4940887;29;20507;-71
2021/06/10 10:39:53;;;;;;;2.60;1.85;;;;;;;-140.79;100.00;63287.88;4925258;29;20419;-71
2021/06/10 10:42:37;;;;;;;2.63;2.03;;;;;;;-140.79;100.00;63287.88;4944015;29;20027;-71
2021/06/10 10:45:14;;;;;;;3.75;1.80;;;;;;;-140.79;100.00;63287.88;4914878;29;20388;-72
2021/06/10 10:47:58;;;;;;;2.60;1.73;;;;;;;-140.79;100.00;63287.88;4931005;29;20031;-71
2021/06/10 10:50:40;;;;;;;2.35;1.52;;;;;;;-140.79;100.00;63287.88;4933820;29;20090;-71
2021/06/10 10:53:27;;;;;;;3.83;2.05;;;;;;;-140.79;100.00;63287.88;4926346;29;20035;-72
2021/06/10 10:56:34;;;;;;;3.55;1.80;;;;;;;-140.79;100.00;63287.88;4926602;29;20038;-71
2021/06/10 10:59:19;;;;;;;2.03;1.60;;;;;;;-140.79;100.00;63287.88;4933118;29;20035;-71
2021/06/10 11:02:17;;;;;;;2.95;2.20;;;;;;;-140.79;100.00;63287.88;4920706;29;20053;-72
2021/06/10 11:05:04;;;;;;;3.03;1.60;;;;;;;-140.79;100.00;63287.88;4935087;29;20055;-72
2021/06/10 11:07:50;;;;;;;3.17;1.65;;;;;;;-140.79;100.00;63287.88;4938263;29;20170;-71
2021/06/10 11:10:35;;;;;;;2.30;1.33;;;;;;;-140.79;100.00;63287.88;4952500;29;20043;-72